createdAt,value
2019-04-22T13:39:31.557Z,34.27
2019-04-22T13:42:05.989Z,34.18
2019-04-22T13:44:37.998Z,34.18
2019-04-22T13:47:29.779Z,34.16
2019-04-22T13:50:25.553Z,34.15
2019-04-22T13:52:56.309Z,34.21
2019-04-22T13:55:25.373Z,34.21
2019-04-22T13:57:47.183Z,34.25
2019-04-22T14:00:05.701Z,34.25
2019-04-22T14:02:37.391Z,34.26
2019-04-22T14:05:12.872Z,34.29
2019-04-22T14:07:46.698Z,34.29
2019-04-22T14:10:26.938Z,34.29
2019-04-22T14:13:00.194Z,34.31
2019-04-22T14:15:31.965Z,34.30
2019-04-22T14:18:05.138Z,34.28
2019-04-22T14:20:38.693Z,34.27
2019-04-22T14:23:11.711Z,34.27
2019-04-22T14:25:48.516Z,34.28
2019-04-22T14:28:21.438Z,34.26
2019-04-22T14:30:52.650Z,34.26
2019-04-22T14:33:24.429Z,34.24
2019-04-22T14:35:56.450Z,34.25
2019-04-22T14:38:34.734Z,34.24
2019-04-22T14:41:08.278Z,34.26
2019-04-22T14:44:23.367Z,34.25
2019-04-22T14:46:39.088Z,34.26
2019-04-22T14:49:10.106Z,34.29
2019-04-22T14:51:46.412Z,34.26
2019-04-22T14:54:10.135Z,34.23
2019-04-22T14:56:28.812Z,34.24
2019-04-22T14:59:02.929Z,34.25
2019-04-22T15:01:35.032Z,34.28
2019-04-22T15:04:07.292Z,34.29
2019-04-22T15:06:40.404Z,34.26
2019-04-22T15:09:14.399Z,34.21
2019-04-22T15:11:59.469Z,34.18
2019-04-22T15:14:21.467Z,34.18
2019-04-22T15:16:55.136Z,34.18
2019-04-22T15:19:27.665Z,34.10
2019-04-22T15:22:08.411Z,34.12
2019-04-22T15:24:40.704Z,34.14
2019-04-22T15:27:12.036Z,34.10
2019-04-22T15:29:43.620Z,34.01
2019-04-22T15:32:18.743Z,34.01
2019-04-22T15:34:51.170Z,34.01
2019-04-22T15:37:26.435Z,33.98
2019-04-22T15:40:00.566Z,34.01
2019-04-22T15:42:37.721Z,34.03
2019-04-22T15:45:08.657Z,34.01
2019-04-22T15:47:41.801Z,33.98
2019-04-22T15:50:19.799Z,34.00
2019-04-22T15:53:00.442Z,34.00
2019-04-22T15:55:32.340Z,33.94
2019-04-22T15:58:05.750Z,33.97
2019-04-22T16:00:51.603Z,33.99
2019-04-22T16:03:29.810Z,33.95
2019-04-22T16:06:02.168Z,33.98
2019-04-22T16:08:35.975Z,33.94
2019-04-22T16:11:13.984Z,33.95
2019-04-22T16:13:46.595Z,33.93
2019-04-22T16:16:18.807Z,33.94
2019-04-22T16:18:52.040Z,33.90
2019-04-22T16:21:32.812Z,33.87
2019-04-22T16:23:58.607Z,33.89
2019-04-22T16:26:32.567Z,33.92
2019-04-22T16:29:09.420Z,33.94
2019-04-22T16:31:41.474Z,33.97
2019-04-22T16:34:23.830Z,33.96
2019-04-22T16:36:54.623Z,33.95
2019-04-22T16:39:30.935Z,33.98
2019-04-22T16:42:06.754Z,34.07
2019-04-22T16:44:40.626Z,33.97
2019-04-22T16:47:13.345Z,33.95
2019-04-22T16:49:45.676Z,33.96
2019-04-22T16:52:19.914Z,33.67
2019-04-22T16:54:52.930Z,33.45
2019-04-22T16:57:26.031Z,33.20
2019-04-22T16:59:58.483Z,32.75
2019-04-22T17:02:32.914Z,32.64
2019-04-22T17:05:07.466Z,32.12
2019-04-22T17:07:40.248Z,32.04
2019-04-22T17:10:13.514Z,32.01
2019-04-22T17:12:54.304Z,31.75
2019-04-22T17:15:27.033Z,31.57
2019-04-22T17:17:59.209Z,31.51
2019-04-22T17:20:31.291Z,31.48
2019-04-22T17:23:07.445Z,31.57
2019-04-22T17:25:40.510Z,31.30
2019-04-22T17:28:13.413Z,31.29
2019-04-22T17:30:48.182Z,31.14
2019-04-22T17:33:19.382Z,31.07
2019-04-22T17:35:52.805Z,31.19
2019-04-22T17:38:33.932Z,31.02
2019-04-22T17:41:11.480Z,30.97
2019-04-22T17:43:56.007Z,30.90
2019-04-22T17:46:25.192Z,31.33
2019-04-22T17:49:05.976Z,31.22
2019-04-22T17:51:38.202Z,31.14
2019-04-22T17:54:08.275Z,31.28
2019-04-22T17:56:44.793Z,31.09
2019-04-22T17:59:22.921Z,31.41
2019-04-22T18:01:49.193Z,31.38
2019-04-22T18:04:04.846Z,31.50
2019-04-22T18:07:02.143Z,31.67
2019-04-22T18:10:14.195Z,31.38
2019-04-22T18:12:20.109Z,31.20
2019-04-22T18:14:49.713Z,31.03
2019-04-22T18:17:27.290Z,31.00
2019-04-22T18:19:46.283Z,30.84
2019-04-22T18:22:19.755Z,30.89
2019-04-22T18:24:52.906Z,30.96
2019-04-22T18:30:02.205Z,30.86
2019-04-22T18:32:30.253Z,30.90
2019-04-22T18:35:10.540Z,30.78
2019-04-22T18:37:46.987Z,30.92
2019-04-22T18:40:18.166Z,30.93
2019-04-22T18:42:55.218Z,30.97
2019-04-22T18:47:53.116Z,30.84
2019-04-22T18:50:45.283Z,31.14
2019-04-22T18:53:16.014Z,30.90
2019-04-22T18:55:38.842Z,31.04
2019-04-22T18:58:16.319Z,31.22
2019-04-22T19:00:34.334Z,31.19
2019-04-22T19:03:13.067Z,31.65
2019-04-22T19:06:03.595Z,31.35
2019-04-22T19:08:50.112Z,31.50
2019-04-22T19:11:28.615Z,31.26
2019-04-22T19:16:32.063Z,31.14
2019-04-22T19:19:17.835Z,31.13
2019-04-22T19:21:26.637Z,31.13
2019-04-22T19:24:00.071Z,31.00
2019-04-22T19:26:46.044Z,30.96
2019-04-22T19:29:05.598Z,30.99
2019-04-22T19:31:46.600Z,30.92
2019-04-22T19:34:20.573Z,30.83
2019-04-22T19:36:55.984Z,30.77
2019-04-22T19:39:26.530Z,30.97
2019-04-22T19:42:00.922Z,31.07
2019-04-22T19:44:36.261Z,30.92
2019-04-22T19:47:20.835Z,30.92
2019-04-22T19:49:49.604Z,30.79
2019-04-22T19:52:20.990Z,30.91
2019-04-22T19:54:46.738Z,30.86
2019-04-22T19:57:11.723Z,30.85
2019-04-22T19:59:51.516Z,30.91
2019-04-22T20:02:24.957Z,30.80
2019-04-22T20:05:11.131Z,30.76
2019-04-22T20:07:34.436Z,30.58
2019-04-22T20:10:22.112Z,30.51
2019-04-22T20:12:48.676Z,30.45
2019-04-22T20:15:25.875Z,30.69
2019-04-22T20:20:54.071Z,30.72
2019-04-22T20:23:02.895Z,30.60
2019-04-22T20:25:38.970Z,30.54
2019-04-22T20:28:13.218Z,30.51
2019-04-22T20:30:46.182Z,30.47
2019-04-22T20:33:18.990Z,30.58
2019-04-22T20:35:51.938Z,30.60
2019-04-22T20:38:25.948Z,30.40
2019-04-22T20:41:02.738Z,30.72
2019-04-22T20:43:44.888Z,30.71
2019-04-22T20:46:11.421Z,30.66
2019-04-22T20:48:50.015Z,30.67
2019-04-22T20:51:14.014Z,30.58
2019-04-22T20:53:52.298Z,30.80
2019-04-22T20:56:18.607Z,30.72
2019-04-22T20:58:56.141Z,30.63
2019-04-22T21:01:28.328Z,30.77
2019-04-22T21:03:54.798Z,30.57
2019-04-22T21:06:36.894Z,30.52
2019-04-22T21:09:12.119Z,30.59
2019-04-22T21:11:45.042Z,30.57
2019-04-22T21:14:14.819Z,30.45
2019-04-22T21:16:51.703Z,30.71
2019-04-22T21:19:38.569Z,30.57
2019-04-22T21:22:06.014Z,30.72
2019-04-22T21:24:33.040Z,30.63
2019-04-22T21:27:10.272Z,30.72
2019-04-22T21:29:34.697Z,30.78
2019-04-22T21:32:21.720Z,30.76
2019-04-22T21:34:52.726Z,30.70
2019-04-22T21:37:30.175Z,30.52
2019-04-22T21:39:46.347Z,30.81
2019-04-22T21:42:26.628Z,30.58
2019-04-22T21:44:55.707Z,30.56
2019-04-22T21:47:35.326Z,30.48
2019-04-22T21:50:21.433Z,30.29
2019-04-22T21:52:41.779Z,30.46
2019-04-22T21:55:15.824Z,30.73
2019-04-22T21:57:55.529Z,30.60
2019-04-22T22:00:31.217Z,30.66
2019-04-22T22:02:58.902Z,30.55
2019-04-22T22:05:21.760Z,30.63
2019-04-22T22:07:52.109Z,30.94
2019-04-22T22:10:41.843Z,31.03
2019-04-22T22:13:11.087Z,31.02
2019-04-22T22:15:43.216Z,30.97
2019-04-22T22:18:16.424Z,31.17
2019-04-22T22:21:10.963Z,31.31
2019-04-22T22:23:25.179Z,31.30
2019-04-22T22:25:55.804Z,31.25
2019-04-22T22:28:45.392Z,31.08
2019-04-22T22:31:10.315Z,30.76
2019-04-22T22:33:35.521Z,31.01
2019-04-22T22:36:05.079Z,31.04
2019-04-22T22:38:41.579Z,30.75
2019-04-22T22:41:00.132Z,30.91
2019-04-22T22:43:37.536Z,31.44
2019-04-22T22:46:20.454Z,31.76
